| time (UTC) | temp F | wind direction | speed MPH | gust MPH | rain 1hr in | rain 24hr in | rain mn in | humidity % | barometer mb |
| 20260905211556 | 64 | 275 | 1.0 | 2.0 | 0.00 | 0.02 | 0.00 | 83 | 1012.3 |
| 20260905210033 | 64 | 263 | 0.0 | 3.0 | 0.00 | 0.02 | 0.00 | 84 | 1012.3 |
| 20260905204531 | 65 | 306 | 0.0 | 3.0 | 0.00 | 0.02 | 0.00 | 84 | 1012.4 |
| 20260905201534 | 68 | 337 | 1.0 | 3.0 | 0.00 | 0.02 | 0.00 | 76 | 1012.4 |
| 20260905200032 | 71 | 137 | 1.0 | 5.0 | 0.00 | 0.02 | 0.00 | 69 | 1011.9 |
| 20260905194526 | 71 | 247 | 1.0 | 3.0 | 0.00 | 0.02 | 0.00 | 71 | 1011.5 |
| 20260905191527 | 71 | 271 | 0.0 | 2.0 | 0.00 | 0.02 | 0.00 | 72 | 1011.4 |
| 20260905190024 | 71 | 271 | 0.0 | 4.0 | 0.00 | 0.02 | 0.00 | 71 | 1011.4 |
| 20260905184524 | 71 | 211 | 0.0 | 4.0 | 0.00 | 0.02 | 0.00 | 71 | 1011.4 |
| 20260905181524 | 71 | 269 | 2.0 | 6.0 | 0.00 | 0.03 | 0.00 | 72 | 1011.5 |
| 20260905180023 | 72 | 321 | 3.0 | 6.0 | 0.00 | 0.03 | 0.00 | 69 | 1011.4 |
| 20260905174524 | 71 | 336 | 1.0 | 4.0 | 0.00 | 0.03 | 0.00 | 69 | 1011.4 |
| 20260905171523 | 72 | 274 | 0.0 | 3.0 | 0.00 | 0.03 | 0.00 | 70 | 1011.1 |
| 20260905170023 | 72 | 305 | 0.0 | 3.0 | 0.00 | 0.03 | 0.00 | 68 | 1011.2 |
| 20260905164523 | 72 | 325 | 0.0 | 4.0 | 0.00 | 0.03 | 0.00 | 68 | 1011.2 |
| 20260905161517 | 70 | 312 | 0.0 | 3.0 | 0.00 | 0.03 | 0.00 | 74 | 1011.2 |
| 20260905160017 | 71 | 302 | 1.0 | 4.0 | 0.00 | 0.03 | 0.00 | 72 | 1011.2 |
| 20260905154513 | 69 | 323 | 0.0 | 2.0 | 0.00 | 0.03 | 0.00 | 77 | 1011.4 |
| 20260905151512 | 68 | 319 | 0.0 | 0.0 | 0.00 | 0.03 | 0.00 | 79 | 1011.3 |
| 20260905150011 | 68 | 318 | 0.0 | 3.0 | 0.00 | 0.03 | 0.00 | 77 | 1011.3 |
| 20260905144511 | 69 | 329 | 0.0 | 3.0 | 0.00 | 0.03 | 0.00 | 75 | 1011.5 |
| 20260905141520 | 67 | 206 | 0.0 | 2.0 | 0.00 | 0.03 | 0.00 | 80 | 1011.3 |
| 20260905140002 | 67 | 214 | 0.0 | 2.0 | 0.00 | 0.03 | 0.00 | 83 | 1011.2 |
| 20260905134602 | 66 | 211 | 0.0 | 1.0 | 0.00 | 0.03 | 0.00 | 82 | 1011.1 |
| 20260905131601 | 65 | 209 | 0.0 | 2.0 | 0.00 | 0.03 | 0.00 | 85 | 1010.9 |
| 20260905130053 | 65 | 141 | 0.0 | 2.0 | 0.00 | 0.03 | 0.00 | 84 | 1010.8 |
| 20260905124552 | 65 | 173 | 0.0 | 2.0 | 0.00 | 0.03 | 0.00 | 85 | 1010.7 |
| 20260905121548 | 64 | 143 | 0.0 | 0.0 | 0.00 | 0.03 | 0.00 | 87 | 1010.2 |
| 20260905120147 | 63 | 143 | 0.0 | 0.0 | 0.00 | 0.03 | 0.00 | 86 | 1010.2 |
| 20260905114542 | 63 | 116 | 0.0 | 2.0 | 0.00 | 0.03 | 0.00 | 88 | 1010.1 |
| 20260905111541 | 61 | 116 | 0.0 | 2.0 | 0.02 | 0.04 | 0.03 | 90 | 1009.9 |
| 20260905110047 | 61 | 116 | 0.0 | 1.0 | 0.02 | 0.04 | 0.03 | 90 | 1009.9 |
| 20260905104539 | 60 | 116 | 0.0 | 1.0 | 0.02 | 0.04 | 0.03 | 90 | 1009.8 |
| 20260905101544 | 60 | 116 | 0.0 | 0.0 | 0.00 | 0.02 | 0.01 | 89 | 1009.7 |
| 20260905100035 | 61 | 116 | 0.0 | 0.0 | 0.00 | 0.02 | 0.01 | 89 | 1009.6 |
| 20260905094536 | 61 | 116 | 0.0 | 0.0 | 0.00 | 0.02 | 0.01 | 89 | 1009.6 |
| 20260905091535 | 60 | 116 | 0.0 | 0.0 | 0.00 | 0.02 | 0.01 | 89 | 1009.3 |
| 20260905090035 | 60 | 116 | 0.0 | 0.0 | 0.00 | 0.02 | 0.01 | 89 | 1009.3 |
| 20260905084536 | 60 | 116 | 0.0 | 0.0 | 0.00 | 0.02 | 0.01 | 88 | 1009.1 |
| 20260905081534 | 61 | 116 | 0.0 | 0.0 | 0.00 | 0.02 | 0.01 | 88 | 1009.2 |
| 20260905080032 | 61 | 116 | 0.0 | 1.0 | 0.00 | 0.02 | 0.01 | 88 | 1009.1 |
| 20260905074534 | 61 | 115 | 0.0 | 1.0 | 0.00 | 0.02 | 0.01 | 87 | 1009.1 |
| 20260905071531 | 61 | 115 | 0.0 | 0.0 | 0.00 | 0.02 | 0.01 | 86 | 1009.4 |
| 20260905070030 | 61 | 115 | 0.0 | 0.0 | 0.00 | 0.02 | 0.01 | 86 | 1009.3 |
| 20260905064529 | 61 | 115 | 0.0 | 0.0 | 0.00 | 0.02 | 0.01 | 86 | 1009.5 |
| 20260905061527 | 61 | 115 | 0.0 | 1.0 | 0.00 | 0.02 | 0.01 | 86 | 1009.7 |
| 20260905060027 | 61 | 115 | 0.0 | 0.0 | 0.00 | 0.02 | 0.01 | 86 | 1009.9 |
| 20260905054532 | 61 | 115 | 0.0 | 1.0 | 0.00 | 0.02 | 0.01 | 87 | 1009.8 |
| 20260905051527 | 61 | 115 | 0.0 | 0.0 | 0.00 | 0.02 | 0.01 | 86 | 1009.8 |
| 20260905050026 | 61 | 115 | 0.0 | 0.0 | 0.00 | 0.02 | 0.01 | 86 | 1010.0 |
| 20260905044527 | 62 | 115 | 0.0 | 0.0 | 0.00 | 0.02 | 0.01 | 86 | 1009.8 |
| 20260905041522 | 62 | 115 | 0.0 | 0.0 | 0.00 | 0.02 | 0.01 | 85 | 1009.9 |
| 20260905040031 | 63 | 115 | 0.0 | 0.0 | 0.00 | 0.02 | 0.01 | 83 | 1009.9 |
| 20260905034527 | 63 | 115 | 0.0 | 0.0 | 0.00 | 0.02 | 0.01 | 84 | 1009.8 |
| 20260905031519 | 64 | 115 | 0.0 | 0.0 | 0.00 | 0.02 | 0.01 | 84 | 1009.9 |
| 20260905030018 | 64 | 115 | 0.0 | 0.0 | 0.00 | 0.02 | 0.01 | 84 | 1010.0 |
| 20260905024518 | 64 | 115 | 0.0 | 0.0 | 0.00 | 0.02 | 0.01 | 83 | 1010.0 |
| 20260905021516 | 64 | 115 | 0.0 | 0.0 | 0.00 | 0.02 | 0.01 | 82 | 1010.2 |
| 20260905020021 | 65 | 115 | 0.0 | 0.0 | 0.00 | 0.02 | 0.01 | 82 | 1010.2 |
| 20260905014514 | 65 | 115 | 0.0 | 0.0 | 0.00 | 0.02 | 0.01 | 80 | 1010.4 |
| 20260905011515 | 66 | 115 | 0.0 | 0.0 | 0.00 | 0.02 | 0.01 | 79 | 1010.5 |
| 20260905010017 | 67 | 115 | 0.0 | 0.0 | 0.00 | 0.02 | 0.01 | 77 | 1010.4 |
| 20260905004513 | 67 | 115 | 0.0 | 0.0 | 0.00 | 0.02 | 0.01 | 78 | 1010.4 |
| 20260905001513 | 68 | 115 | 0.0 | 0.0 | 0.00 | 0.02 | 0.01 | 75 | 1010.2 |
| 20260905000015 | 69 | 115 | 0.0 | 1.0 | 0.00 | 0.02 | 0.01 | 74 | 1010.1 |
| 20260904234511 | 70 | 115 | 0.0 | 1.0 | 0.00 | 0.02 | 0.01 | 70 | 1009.8 |
| 20260904231512 | 73 | 115 | 0.0 | 0.0 | 0.00 | 0.02 | 0.01 | 64 | 1009.5 |
| 20260904230015 | 74 | 115 | 0.0 | 0.0 | 0.00 | 0.02 | 0.01 | 62 | 1009.4 |
| 20260904224517 | 74 | 115 | 0.0 | 0.0 | 0.00 | 0.02 | 0.01 | 62 | 1009.4 |
| 20260904221509 | 76 | 117 | 0.0 | 1.0 | 0.00 | 0.02 | 0.01 | 63 | 1009.2 |
| 20260904220009 | 76 | 117 | 0.0 | 2.0 | 0.00 | 0.02 | 0.01 | 64 | 1009.1 |
| 20260904214516 | 76 | 109 | 0.0 | 2.0 | 0.00 | 0.02 | 0.01 | 62 | 1009.2 |